createdAt,value
2018-04-19T00:02:29.194Z,1.80
2018-04-19T00:04:58.443Z,2.00
2018-04-19T00:07:27.970Z,5.13
2018-04-19T00:09:57.529Z,2.60
2018-04-19T00:12:26.718Z,2.10
2018-04-19T00:14:56.087Z,2.17
2018-04-19T00:17:25.398Z,1.87
2018-04-19T00:19:54.865Z,2.07
2018-04-19T00:22:24.845Z,1.63
2018-04-19T00:24:54.262Z,2.60
2018-04-19T00:27:24.115Z,1.43
2018-04-19T00:29:54.204Z,1.70
2018-04-19T00:32:23.350Z,2.63
2018-04-19T00:34:52.716Z,1.83
2018-04-19T00:37:22.061Z,3.10
2018-04-19T00:39:51.565Z,1.70
2018-04-19T00:42:20.813Z,2.63
2018-04-19T00:44:50.642Z,1.57
2018-04-19T00:47:19.941Z,2.47
2018-04-19T00:49:49.401Z,2.30
2018-04-19T00:52:18.709Z,3.40
2018-04-19T00:54:48.049Z,3.40
2018-04-19T00:57:17.552Z,2.27
2018-04-19T00:59:46.833Z,2.03
2018-04-19T01:02:16.332Z,1.33
2018-04-19T01:04:45.577Z,1.40
2018-04-19T01:07:15.530Z,2.83
2018-04-19T01:09:44.993Z,1.50
2018-04-19T01:12:14.247Z,1.40
2018-04-19T01:14:43.511Z,1.63
2018-04-19T01:17:12.682Z,2.13
2018-04-19T01:19:42.643Z,1.87
2018-04-19T01:22:11.947Z,1.70
2018-04-19T01:24:42.308Z,2.13
2018-04-19T01:27:11.988Z,2.87
2018-04-19T01:29:41.277Z,2.50
2018-04-19T01:32:10.395Z,2.17
2018-04-19T01:34:39.668Z,6.13
2018-04-19T01:37:08.978Z,1.93
2018-04-19T01:39:38.555Z,2.43
2018-04-19T01:42:07.752Z,1.90
2018-04-19T01:44:36.867Z,5.13
2018-04-19T01:47:06.260Z,1.67
2018-04-19T01:49:35.877Z,1.50
2018-04-19T01:52:04.984Z,1.80
2018-04-19T01:54:35.259Z,1.63
2018-04-19T01:57:04.630Z,2.73
2018-04-19T01:59:35.126Z,4.30
2018-04-19T02:02:04.476Z,2.67
2018-04-19T02:04:34.238Z,1.97
2018-04-19T02:07:03.517Z,4.10
2018-04-19T02:09:32.663Z,3.23
2018-04-19T02:12:02.951Z,2.70
2018-04-19T02:14:32.278Z,3.10
2018-04-19T02:17:01.407Z,3.20
2018-04-19T02:19:30.626Z,2.10
2018-04-19T02:22:00.554Z,2.73
2018-04-19T02:24:29.663Z,3.03
2018-04-19T02:27:00.017Z,1.90
2018-04-19T02:29:28.733Z,3.67
2018-04-19T02:31:57.655Z,2.80
2018-04-19T02:34:26.849Z,3.40
2018-04-19T02:36:56.378Z,3.83
2018-04-19T02:39:25.920Z,3.07
2018-04-19T02:41:55.139Z,3.60
2018-04-19T02:44:24.442Z,2.63
2018-04-19T02:46:53.633Z,2.70
2018-04-19T02:49:22.361Z,4.70
2018-04-19T02:51:51.041Z,2.63
2018-04-19T02:54:19.842Z,3.77
2018-04-19T02:56:48.766Z,4.10
2018-04-19T02:59:18.317Z,4.90
2018-04-19T03:01:47.651Z,2.57
2018-04-19T03:04:19.233Z,2.40
2018-04-19T03:06:52.325Z,2.10
2018-04-19T03:09:21.605Z,2.93
2018-04-19T03:11:53.339Z,2.50
2018-04-19T03:14:24.923Z,2.83
2018-04-19T03:16:54.721Z,4.10
2018-04-19T03:19:23.888Z,2.80
2018-04-19T03:21:54.825Z,4.73
2018-04-19T03:24:24.102Z,4.27
2018-04-19T03:26:53.381Z,4.07
2018-04-19T03:29:23.722Z,4.67
2018-04-19T03:31:53.756Z,6.13
2018-04-19T03:34:23.235Z,4.03
2018-04-19T03:36:52.549Z,5.23
2018-04-19T03:39:21.890Z,7.47
2018-04-19T03:41:51.149Z,5.00
2018-04-19T03:44:20.228Z,5.47
2018-04-19T03:46:48.904Z,6.13
2018-04-19T03:49:17.728Z,4.63
2018-04-19T03:51:46.435Z,4.70
2018-04-19T03:54:15.886Z,5.23
2018-04-19T03:56:44.640Z,4.40
2018-04-19T03:59:13.560Z,3.33
2018-04-19T04:01:43.497Z,5.63
2018-04-19T04:04:12.792Z,5.17
2018-04-19T04:06:42.309Z,5.57
2018-04-19T04:09:11.778Z,6.37
2018-04-19T04:11:41.116Z,7.50
2018-04-19T04:14:10.397Z,6.37
2018-04-19T04:16:51.164Z,4.80
2018-04-19T04:19:31.746Z,8.60
2018-04-19T04:22:12.144Z,4.10
2018-04-19T04:24:42.014Z,5.37
2018-04-19T04:27:11.483Z,3.50
2018-04-19T04:29:43.309Z,5.73
2018-04-19T04:32:13.167Z,3.27
2018-04-19T04:34:42.155Z,2.53
2018-04-19T04:37:11.513Z,6.30
2018-04-19T04:39:40.774Z,2.77
2018-04-19T04:42:10.500Z,3.70
2018-04-19T04:44:39.768Z,4.33
2018-04-19T04:47:10.717Z,3.70
2018-04-19T04:49:40.507Z,3.40
2018-04-19T04:52:09.862Z,2.65
2018-04-19T05:00:20.295Z,3.90
2018-04-19T05:02:49.751Z,2.58
2018-04-19T05:05:20.164Z,3.30
2018-04-19T05:07:49.419Z,4.00
2018-04-19T05:10:18.941Z,5.62
2018-04-19T05:12:48.043Z,4.97
2018-04-19T05:15:17.042Z,3.83
2018-04-19T05:17:46.351Z,4.80
2018-04-19T05:20:15.637Z,5.35
2018-04-19T05:22:45.038Z,3.45
2018-04-19T05:25:14.258Z,3.75
2018-04-19T05:27:43.515Z,4.30
2018-04-19T05:30:13.624Z,6.20
2018-04-19T05:32:43.190Z,2.80
2018-04-19T05:35:12.731Z,3.47
2018-04-19T05:37:41.925Z,4.43
2018-04-19T05:40:11.197Z,4.07
2018-04-19T05:42:40.470Z,3.10
2018-04-19T05:45:09.521Z,3.33
2018-04-19T05:47:39.029Z,3.53
2018-04-19T05:50:08.567Z,2.95
2018-04-19T05:52:38.508Z,2.90
2018-04-19T05:55:07.752Z,2.25
2018-04-19T05:57:37.269Z,2.83
2018-04-19T06:00:06.288Z,3.87
2018-04-19T06:02:35.606Z,3.30
2018-04-19T06:05:04.860Z,4.75
2018-04-19T06:07:34.161Z,6.00
2018-04-19T06:10:03.287Z,5.32
2018-04-19T06:12:32.782Z,3.60
2018-04-19T06:15:01.883Z,3.42
2018-04-19T06:17:30.971Z,5.62
2018-04-19T06:20:00.209Z,5.57
2018-04-19T06:22:29.507Z,2.92
2018-04-19T06:24:58.896Z,3.50
2018-04-19T06:27:28.555Z,3.87
2018-04-19T06:29:58.185Z,6.93
2018-04-19T06:32:29.007Z,5.85
2018-04-19T06:34:58.297Z,3.28
2018-04-19T06:37:27.585Z,4.07
2018-04-19T06:39:57.494Z,3.58
2018-04-19T06:42:26.824Z,4.53
2018-04-19T06:44:56.087Z,4.15
2018-04-19T06:47:25.429Z,3.97
2018-04-19T06:49:55.441Z,5.32
2018-04-19T06:52:24.716Z,3.03
2018-04-19T06:54:54.034Z,5.87
2018-04-19T06:57:23.293Z,5.45
2018-04-19T06:59:52.674Z,6.53
2018-04-19T07:02:21.929Z,8.60
2018-04-19T07:04:52.623Z,5.12
2018-04-19T07:07:21.926Z,4.60
2018-04-19T07:09:51.035Z,7.68
2018-04-19T07:12:20.305Z,6.62
2018-04-19T07:14:49.646Z,8.75
2018-04-19T07:17:18.974Z,6.70
2018-04-19T07:19:48.234Z,7.78
2018-04-19T07:22:17.310Z,7.95
2018-04-19T07:24:46.481Z,5.90
2018-04-19T07:27:15.520Z,6.85
2018-04-19T07:29:44.808Z,7.70
2018-04-19T07:32:14.152Z,5.97
2018-04-19T07:34:44.634Z,4.00
2018-04-19T07:37:13.833Z,8.50
2018-04-19T07:39:43.029Z,5.60
2018-04-19T07:42:12.329Z,6.15
2018-04-19T07:44:41.666Z,5.53
2018-04-19T07:47:11.768Z,7.22
2018-04-19T07:49:41.667Z,5.25
2018-04-19T07:52:10.786Z,7.57
2018-04-19T07:54:39.653Z,6.57
2018-04-19T07:57:08.740Z,6.72
2018-04-19T07:59:38.073Z,7.12
2018-04-19T08:02:07.356Z,10.57
2018-04-19T08:04:36.621Z,10.20
2018-04-19T08:07:05.801Z,10.38
2018-04-19T08:09:35.275Z,9.88
2018-04-19T08:12:04.522Z,16.05
2018-04-19T08:14:33.840Z,17.35
2018-04-19T08:17:02.947Z,14.80
2018-04-19T08:19:32.960Z,13.55
2018-04-19T08:22:02.035Z,12.37
2018-04-19T08:24:31.385Z,11.45
2018-04-19T08:27:00.625Z,11.38
2018-04-19T08:29:30.180Z,9.07
2018-04-19T08:31:59.271Z,9.25
2018-04-19T08:34:28.340Z,10.20
2018-04-19T08:36:58.378Z,8.30
2018-04-19T08:39:27.769Z,12.85
2018-04-19T08:41:57.068Z,14.55
2018-04-19T08:44:26.241Z,15.20
2018-04-19T08:46:55.329Z,15.07
2018-04-19T08:49:24.357Z,16.62
2018-04-19T08:51:53.624Z,10.88
2018-04-19T08:54:22.818Z,12.25
2018-04-19T08:56:52.370Z,9.07
2018-04-19T08:59:21.638Z,14.52
2018-04-19T09:01:50.996Z,11.05
2018-04-19T09:04:20.443Z,10.45
2018-04-19T09:06:49.567Z,13.75
2018-04-19T09:09:18.866Z,9.48
2018-04-19T09:11:48.134Z,9.52
2018-04-19T09:14:17.452Z,7.82
2018-04-19T09:16:46.998Z,15.05
2018-04-19T09:19:16.029Z,7.30
2018-04-19T09:21:45.957Z,7.20
2018-04-19T09:24:15.501Z,8.60
2018-04-19T09:26:44.593Z,8.15
2018-04-19T09:29:13.655Z,8.30
2018-04-19T09:31:42.883Z,9.45
2018-04-19T09:34:12.157Z,6.57
2018-04-19T09:36:41.438Z,9.35
2018-04-19T09:39:11.784Z,8.50
2018-04-19T09:41:41.060Z,12.10
2018-04-19T09:44:10.416Z,9.93
2018-04-19T09:46:39.681Z,10.02
2018-04-19T09:49:10.420Z,9.68
2018-04-19T09:51:39.858Z,12.25
2018-04-19T09:54:09.986Z,11.82
2018-04-19T09:56:40.375Z,14.40
2018-04-19T09:59:14.021Z,15.93
2018-04-19T10:01:49.441Z,16.08
2018-04-19T10:04:25.152Z,16.83
2018-04-19T10:06:54.882Z,17.50
2018-04-19T10:09:25.177Z,13.60
2018-04-19T10:11:54.510Z,11.05
2018-04-19T10:14:23.829Z,15.10
2018-04-19T10:16:53.149Z,14.70
2018-04-19T10:19:22.547Z,13.57
2018-04-19T10:21:51.958Z,14.23
2018-04-19T10:24:21.157Z,13.62
2018-04-19T10:26:50.483Z,13.23
2018-04-19T10:29:19.837Z,15.60
2018-04-19T10:31:49.073Z,10.25
2018-04-19T10:34:18.966Z,21.40
2018-04-19T10:36:48.113Z,22.70
2018-04-19T10:39:18.342Z,12.80
2018-04-19T10:41:47.738Z,13.85
2018-04-19T10:44:17.060Z,16.23
2018-04-19T10:46:46.625Z,14.90
2018-04-19T10:49:16.446Z,15.07
2018-04-19T10:51:46.345Z,11.80
2018-04-19T10:54:15.476Z,16.10
2018-04-19T10:56:44.710Z,12.77
2018-04-19T10:59:14.082Z,14.95
2018-04-19T11:01:43.507Z,11.90
2018-04-19T11:04:12.799Z,22.87
2018-04-19T11:06:42.260Z,54.60
2018-04-19T11:09:11.796Z,21.83
2018-04-19T11:11:40.965Z,21.30
2018-04-19T11:14:10.428Z,20.48
2018-04-19T11:16:39.694Z,23.12
2018-04-19T11:19:09.460Z,19.65
2018-04-19T11:21:38.726Z,17.90
2018-04-19T11:24:08.017Z,15.20
2018-04-19T11:26:37.363Z,17.90
2018-04-19T11:29:06.637Z,15.35
2018-04-19T11:31:37.804Z,19.40
2018-04-19T11:34:07.718Z,14.38
2018-04-19T11:36:37.013Z,11.15
2018-04-19T11:39:07.381Z,18.67
2018-04-19T11:41:37.252Z,11.75
2018-04-19T11:44:06.521Z,9.88
2018-04-19T11:46:35.861Z,28.12
2018-04-19T11:49:05.901Z,33.72
2018-04-19T11:51:35.620Z,24.65
2018-04-19T11:54:04.908Z,19.58
2018-04-19T11:56:34.124Z,15.52
2018-04-19T11:59:03.522Z,9.57
2018-04-19T12:01:32.710Z,9.65
2018-04-19T12:04:01.825Z,12.15
2018-04-19T12:06:31.136Z,12.43
2018-04-19T12:09:00.525Z,11.43
2018-04-19T12:11:29.940Z,13.30
2018-04-19T12:13:58.992Z,16.52
2018-04-19T12:16:28.223Z,22.35
2018-04-19T12:18:57.508Z,13.48
2018-04-19T12:21:26.810Z,10.13
2018-04-19T12:23:56.487Z,14.00
2018-04-19T12:26:26.872Z,14.45
2018-04-19T12:28:56.386Z,13.40
2018-04-19T12:31:25.728Z,14.90
2018-04-19T12:33:54.973Z,11.12
2018-04-19T12:36:24.246Z,8.60
2018-04-19T12:38:53.655Z,12.30
2018-04-19T12:41:22.846Z,9.52
2018-04-19T12:43:52.989Z,11.55
2018-04-19T12:46:22.083Z,14.75
2018-04-19T12:48:51.068Z,14.40
2018-04-19T12:51:20.613Z,14.30
2018-04-19T12:53:49.699Z,15.18
2018-04-19T12:56:26.425Z,15.77
2018-04-19T12:58:55.658Z,8.30
2018-04-19T13:01:24.966Z,10.88
2018-04-19T13:03:54.442Z,11.90
2018-04-19T13:06:24.011Z,14.87
2018-04-19T13:08:53.301Z,14.43
2018-04-19T13:11:22.809Z,11.27
2018-04-19T13:13:52.101Z,11.05
2018-04-19T13:16:21.331Z,16.02
2018-04-19T13:18:50.690Z,13.82
2018-04-19T13:21:19.988Z,11.82
2018-04-19T13:23:50.180Z,18.67
2018-04-19T13:26:19.250Z,16.17
2018-04-19T13:28:48.714Z,12.73
2018-04-19T13:31:17.902Z,12.80
2018-04-19T13:33:47.102Z,15.10
2018-04-19T13:36:16.160Z,15.10
2018-04-19T13:38:45.655Z,16.52
2018-04-19T13:41:16.420Z,11.63
2018-04-19T13:43:46.756Z,15.38
2018-04-19T13:46:17.077Z,17.83
2018-04-19T13:48:46.855Z,19.37
2018-04-19T13:51:15.896Z,9.88
2018-04-19T13:53:45.305Z,18.08
2018-04-19T13:56:15.016Z,13.45
2018-04-19T13:58:44.502Z,14.80
2018-04-19T14:01:15.059Z,15.05
2018-04-19T14:03:44.547Z,16.17
2018-04-19T14:06:13.749Z,19.98
2018-04-19T14:08:42.948Z,17.60
2018-04-19T14:11:12.562Z,11.63
2018-04-19T14:13:41.776Z,13.73
2018-04-19T14:16:11.073Z,17.37
2018-04-19T14:18:40.701Z,12.77
2018-04-19T14:21:10.114Z,15.55
2018-04-19T14:23:39.191Z,10.40
2018-04-19T14:26:08.262Z,9.70
2018-04-19T14:28:38.006Z,10.07
2018-04-19T14:31:07.060Z,8.77
2018-04-19T14:33:36.448Z,9.43
2018-04-19T14:36:05.785Z,6.80
2018-04-19T14:38:35.318Z,13.60
2018-04-19T14:41:04.642Z,6.82
2018-04-19T14:43:33.798Z,5.78
2018-04-19T14:46:03.292Z,7.10
2018-04-19T14:48:33.640Z,9.02
2018-04-19T14:51:02.912Z,7.10
2018-04-19T14:53:33.086Z,6.60
2018-04-19T14:56:02.349Z,4.73
2018-04-19T14:58:31.509Z,5.87
2018-04-19T15:01:00.900Z,5.90
2018-04-19T15:03:30.660Z,6.13
2018-04-19T15:06:00.127Z,4.57
2018-04-19T15:08:29.241Z,5.97
2018-04-19T15:10:58.346Z,5.83
2018-04-19T15:13:28.260Z,4.30
2018-04-19T15:15:57.713Z,6.97
2018-04-19T15:18:27.232Z,5.33
2018-04-19T15:20:56.654Z,5.30
2018-04-19T15:23:26.146Z,8.07
2018-04-19T15:25:55.449Z,5.93
2018-04-19T15:28:24.684Z,5.63
2018-04-19T15:30:53.762Z,5.67
2018-04-19T15:33:23.884Z,8.30
2018-04-19T15:35:53.220Z,8.87
2018-04-19T15:38:23.279Z,4.93
2018-04-19T15:40:52.382Z,5.23
2018-04-19T15:43:21.744Z,3.97
2018-04-19T15:45:51.146Z,4.00
2018-04-19T15:48:20.484Z,4.60
2018-04-19T15:50:50.783Z,7.97
2018-04-19T15:53:20.077Z,2.30
2018-04-19T15:55:49.192Z,3.83
2018-04-19T15:58:18.273Z,5.73
2018-04-19T16:00:47.165Z,4.67
2018-04-19T16:03:16.538Z,2.10
2018-04-19T16:05:46.639Z,5.33
2018-04-19T16:08:16.100Z,3.20
2018-04-19T16:10:45.187Z,3.27
2018-04-19T16:13:14.495Z,2.93
2018-04-19T16:15:43.849Z,3.33
2018-04-19T16:18:13.017Z,3.43
2018-04-19T16:20:42.253Z,2.80
2018-04-19T16:23:11.574Z,1.60
2018-04-19T16:25:40.918Z,2.33
2018-04-19T16:28:10.459Z,2.90
2018-04-19T16:30:39.654Z,2.60
2018-04-19T16:33:09.592Z,3.60
2018-04-19T16:35:39.596Z,3.80
2018-04-19T16:38:09.088Z,3.50
2018-04-19T16:40:38.431Z,3.50
2018-04-19T16:43:08.581Z,3.20
2018-04-19T16:45:39.066Z,2.90
2018-04-19T16:48:08.318Z,2.23
2018-04-19T16:50:37.658Z,2.20
2018-04-19T16:53:08.037Z,2.50
2018-04-19T16:55:37.309Z,2.70
2018-04-19T16:58:06.782Z,2.23
2018-04-19T17:00:36.034Z,2.27
2018-04-19T17:03:05.390Z,2.93
2018-04-19T17:05:34.660Z,3.80
2018-04-19T17:08:03.769Z,3.10
2018-04-19T17:10:32.927Z,2.40
2018-04-19T17:13:03.356Z,3.03
2018-04-19T17:15:33.672Z,3.57
2018-04-19T17:18:02.752Z,3.83
2018-04-19T17:20:39.748Z,3.17
2018-04-19T17:23:08.816Z,2.20
2018-04-19T17:25:37.897Z,3.57
2018-04-19T17:28:07.056Z,3.30
2018-04-19T17:30:37.067Z,2.63
2018-04-19T17:33:06.382Z,4.40
2018-04-19T17:35:35.938Z,2.70
2018-04-19T17:38:05.847Z,2.17
2018-04-19T17:40:34.928Z,4.30
2018-04-19T17:43:04.779Z,3.47
2018-04-19T17:45:33.809Z,3.30
2018-04-19T17:48:03.144Z,3.00
2018-04-19T17:50:32.417Z,4.33
2018-04-19T17:53:02.073Z,3.30
2018-04-19T17:55:32.125Z,3.10
2018-04-19T17:58:02.336Z,5.30
2018-04-19T18:00:31.772Z,3.63
2018-04-19T18:03:02.184Z,2.50
2018-04-19T18:05:31.387Z,3.57
2018-04-19T18:08:00.477Z,3.90
2018-04-19T18:10:29.772Z,3.43
2018-04-19T18:12:59.294Z,3.57
2018-04-19T18:15:28.542Z,3.83
2018-04-19T18:17:57.891Z,2.50
2018-04-19T18:20:26.995Z,4.83
2018-04-19T18:22:57.328Z,5.27
2018-04-19T18:25:26.625Z,3.40
2018-04-19T18:27:55.713Z,3.10
2018-04-19T18:30:25.003Z,4.90
2018-04-19T18:32:55.725Z,3.80
2018-04-19T18:35:25.071Z,5.77
2018-04-19T18:37:54.110Z,4.47
2018-04-19T18:40:23.424Z,3.33
2018-04-19T18:42:52.519Z,3.03
2018-04-19T18:45:22.246Z,2.97
2018-04-19T18:47:51.702Z,2.70
2018-04-19T18:50:21.029Z,2.90
2018-04-19T18:52:50.758Z,2.93
2018-04-19T18:55:19.866Z,4.77
2018-04-19T18:57:50.010Z,8.73
2018-04-19T19:00:19.060Z,4.60
2018-04-19T19:02:48.379Z,3.50
2018-04-19T19:05:17.722Z,6.03
2018-04-19T19:07:46.933Z,4.77
2018-04-19T19:10:16.265Z,2.60
2018-04-19T19:12:46.584Z,4.53
2018-04-19T19:15:40.270Z,4.10
2018-04-19T19:18:20.817Z,2.93
2018-04-19T19:20:50.152Z,2.13
2018-04-19T19:23:19.427Z,4.50
2018-04-19T19:25:48.705Z,3.77
2018-04-19T19:28:17.912Z,3.03
2018-04-19T19:30:46.970Z,3.13
2018-04-19T19:33:16.295Z,3.63
2018-04-19T19:35:45.761Z,4.87
2018-04-19T19:38:14.936Z,2.63
2018-04-19T19:40:44.343Z,2.77
2018-04-19T19:43:13.725Z,2.03
2018-04-19T19:45:43.804Z,2.60
2018-04-19T19:48:13.116Z,2.20
2018-04-19T19:50:42.169Z,2.33
2018-04-19T19:53:11.464Z,4.17
2018-04-19T19:55:40.895Z,2.30
2018-04-19T19:58:11.081Z,3.63
2018-04-19T20:00:40.309Z,2.40
2018-04-19T20:03:09.621Z,4.00
2018-04-19T20:05:40.601Z,3.00
2018-04-19T20:08:10.144Z,3.23
2018-04-19T20:10:39.344Z,2.40
2018-04-19T20:13:08.853Z,4.80
2018-04-19T20:15:38.171Z,2.80
2018-04-19T20:18:07.661Z,3.50
2018-04-19T20:20:36.982Z,2.50
2018-04-19T20:23:06.070Z,3.07
2018-04-19T20:25:35.330Z,2.73
2018-04-19T20:28:04.697Z,3.40
2018-04-19T20:30:33.823Z,2.00
2018-04-19T20:33:03.154Z,5.00
2018-04-19T20:35:32.429Z,4.10
2018-04-19T20:38:01.948Z,1.70
2018-04-19T20:40:31.073Z,2.33
2018-04-19T20:43:00.836Z,2.40
2018-04-19T20:45:29.650Z,3.00
2018-04-19T20:47:59.178Z,3.33
2018-04-19T20:50:28.677Z,2.83
2018-04-19T20:52:57.981Z,2.57
2018-04-19T20:55:27.973Z,2.03
2018-04-19T20:57:57.078Z,2.33
2018-04-19T21:00:27.418Z,2.10
2018-04-19T21:02:56.507Z,3.43
2018-04-19T21:05:25.588Z,3.33
2018-04-19T21:07:56.335Z,2.57
2018-04-19T21:10:25.612Z,2.40
2018-04-19T21:12:54.896Z,1.77
2018-04-19T21:15:24.189Z,1.97
2018-04-19T21:17:53.328Z,2.03
2018-04-19T21:20:22.588Z,3.10
2018-04-19T21:22:51.895Z,2.40
2018-04-19T21:25:20.996Z,2.10
2018-04-19T21:27:50.315Z,3.80
2018-04-19T21:30:19.571Z,2.00
2018-04-19T21:32:48.896Z,3.07
2018-04-19T21:35:18.210Z,2.03
2018-04-19T21:37:47.478Z,3.00
2018-04-19T21:40:16.769Z,3.00
2018-04-19T21:42:45.756Z,3.93
2018-04-19T21:45:14.991Z,2.57
2018-04-19T21:47:44.470Z,2.40
2018-04-19T21:50:14.318Z,2.50
2018-04-19T21:52:43.407Z,3.10
2018-04-19T21:55:13.518Z,3.73
2018-04-19T21:57:42.707Z,1.87
2018-04-19T22:00:12.301Z,2.53
2018-04-19T22:02:42.918Z,3.20
2018-04-19T22:05:12.452Z,3.90
2018-04-19T22:07:41.720Z,6.07
2018-04-19T22:10:11.225Z,1.90
2018-04-19T22:12:40.550Z,2.93
2018-04-19T22:15:09.825Z,4.30
2018-04-19T22:17:39.336Z,3.30
2018-04-19T22:20:08.651Z,2.67
2018-04-19T22:22:38.192Z,4.40
2018-04-19T22:25:07.082Z,5.23
2018-04-19T22:27:36.143Z,1.80
2018-04-19T22:30:05.330Z,2.97
2018-04-19T22:32:34.697Z,1.90
2018-04-19T22:35:03.735Z,1.70
2018-04-19T22:37:33.030Z,3.07
2018-04-19T22:40:02.164Z,2.30
2018-04-19T22:42:31.425Z,4.90
2018-04-19T22:45:00.995Z,2.17
2018-04-19T22:47:30.045Z,3.73
2018-04-19T22:49:59.316Z,2.60
2018-04-19T22:52:29.734Z,1.73
2018-04-19T22:54:58.953Z,4.37
2018-04-19T22:57:28.210Z,5.00
2018-04-19T22:59:57.392Z,2.77
2018-04-19T23:02:26.665Z,1.77
2018-04-19T23:04:56.944Z,1.87
2018-04-19T23:07:26.263Z,6.10
2018-04-19T23:09:55.532Z,6.63
2018-04-19T23:12:24.958Z,2.50
2018-04-19T23:14:54.239Z,4.50
2018-04-19T23:17:23.728Z,2.47
2018-04-19T23:19:53.245Z,2.60
2018-04-19T23:22:28.773Z,1.60
2018-04-19T23:24:58.003Z,2.43
2018-04-19T23:27:27.358Z,6.60
2018-04-19T23:30:04.396Z,3.77
2018-04-19T23:32:33.916Z,2.23
2018-04-19T23:35:04.246Z,1.70
2018-04-19T23:37:33.330Z,2.10
2018-04-19T23:40:03.688Z,2.57
2018-04-19T23:42:32.726Z,1.70
2018-04-19T23:45:01.980Z,1.50
2018-04-19T23:47:31.340Z,3.70
2018-04-19T23:50:00.500Z,2.80
2018-04-19T23:52:29.833Z,3.50
2018-04-19T23:55:00.593Z,2.93
2018-04-19T23:57:29.837Z,5.77
2018-04-19T23:59:59.065Z,5.00
